Time;durP1;ratioP1;P1;durP2;ratioP2;P2;SDS_P1;SDS_P2;PMS_P1;PMS_P2;Temp;Humidity;BMP_temperature;BMP_pressure;BME280_temperature;BME280_humidity;BME280_pressure;Samples;Min_cycle;Max_cycle;Signal;HPM_P1;HPM_P2
2021/12/25 00:01:08;;;;;;;3.45;2.20;;;;;;;-1.68;85.35;99114.33;2071702;84;21895;-73
2021/12/25 00:04:10;;;;;;;4.42;2.50;;;;;;;-1.78;85.15;99122.92;2075594;83;21948;-77
2021/12/25 00:07:11;;;;;;;3.62;2.33;;;;;;;-1.89;84.87;99118.02;2080539;83;21018;-79
2021/12/25 00:10:13;;;;;;;2.75;2.02;;;;;;;-1.94;84.81;99120.16;2081099;83;21047;-79
2021/12/25 00:13:15;;;;;;;4.75;2.50;;;;;;;-1.97;84.31;99120.83;2071536;83;21048;-79
2021/12/25 00:28:15;;;;;;;4.62;3.25;;;;;;;-2.00;83.40;99168.67;2060998;85;21114;-76
2021/12/25 00:31:22;;;;;;;6.17;3.75;;;;;;;-2.01;83.83;99185.22;2060381;82;21209;-76
2021/12/25 00:34:06;;;;;;;4.72;3.45;;;;;;;-2.03;83.24;99192.30;2084758;82;21082;-77
2021/12/25 00:37:09;;;;;;;6.70;3.45;;;;;;;-2.07;83.23;99195.59;2071463;83;21876;-75
2021/12/25 00:40:11;;;;;;;5.65;3.80;;;;;;;-2.10;83.42;99206.69;2079021;83;21334;-76
2021/12/25 00:43:13;;;;;;;4.78;2.92;;;;;;;-2.10;83.31;99210.58;2083337;83;21029;-76
2021/12/25 00:46:15;;;;;;;6.58;2.98;;;;;;;-2.16;82.53;99211.84;2088054;83;21095;-76
2021/12/25 00:49:17;;;;;;;5.05;2.35;;;;;;;-2.26;81.99;99222.52;2092689;82;21029;-75
2021/12/25 00:52:19;;;;;;;3.72;1.80;;;;;;;-2.36;81.83;99209.82;2080598;83;21036;-75
2021/12/25 00:55:20;;;;;;;4.65;2.10;;;;;;;-2.46;79.74;99232.17;2075417;83;21073;-76
2021/12/25 00:58:22;;;;;;;4.72;2.25;;;;;;;-2.57;79.93;99229.00;2075607;83;21034;-76
2021/12/25 01:01:24;;;;;;;4.42;2.33;;;;;;;-2.68;78.59;99244.02;2073687;82;21067;-75
2021/12/25 01:04:26;;;;;;;4.85;2.55;;;;;;;-2.77;79.81;99263.64;2052593;84;20999;-76
2021/12/25 01:07:27;;;;;;;3.98;2.45;;;;;;;-2.81;80.42;99270.47;2080017;83;21397;-76
2021/12/25 01:10:30;;;;;;;6.75;2.42;;;;;;;-2.83;80.60;99274.45;2075534;83;21434;-76
2021/12/25 01:13:37;;;;;;;4.00;2.08;;;;;;;-2.88;78.38;99296.45;2087220;82;20990;-75
2021/12/25 01:23:53;;;;;;;4.22;1.70;;;;;;;-3.14;77.01;99305.96;2064075;83;21553;-77
2021/12/25 01:33:29;;;;;;;3.30;2.12;;;;;;;-3.22;78.54;99331.10;2076735;83;21064;-75
2021/12/25 01:36:59;;;;;;;2.77;2.20;;;;;;;-3.25;77.68;99328.70;2048641;82;21078;-76
2021/12/25 01:40:17;;;;;;;2.87;1.70;;;;;;;-3.29;77.96;99343.64;2078562;83;21155;-76
2021/12/25 01:50:07;;;;;;;1.95;1.17;;;;;;;-3.50;76.29;99361.85;2076619;83;21021;-76
2021/12/25 01:53:09;;;;;;;3.80;1.90;;;;;;;-3.57;75.21;99368.37;2062323;83;21086;-76
2021/12/25 01:56:10;;;;;;;1.87;1.40;;;;;;;-3.62;76.17;99374.66;2076089;83;21514;-75
2021/12/25 01:59:12;;;;;;;2.77;1.52;;;;;;;-3.65;76.32;99384.39;2094770;82;21042;-75
2021/12/25 02:02:15;;;;;;;4.12;1.70;;;;;;;-3.69;74.57;99375.12;2075457;83;21005;-76
2021/12/25 02:05:17;;;;;;;3.37;1.70;;;;;;;-3.75;74.57;99378.92;2079480;82;21835;-76
2021/12/25 02:08:19;;;;;;;4.22;2.05;;;;;;;-3.76;75.15;99391.53;2085684;83;21625;-75
2021/12/25 02:11:21;;;;;;;4.10;2.33;;;;;;;-3.80;74.80;99393.09;2090805;83;21571;-76
2021/12/25 02:14:24;;;;;;;3.20;1.92;;;;;;;-3.85;74.79;99389.03;2077646;82;21192;-76
2021/12/25 02:17:36;;;;;;;4.95;1.82;;;;;;;-3.90;74.53;99400.61;2072870;83;21022;-75
2021/12/25 02:20:38;;;;;;;2.75;1.52;;;;;;;-3.94;75.78;99401.70;2080739;83;21108;-75
2021/12/25 02:23:37;;;;;;;6.22;2.33;;;;;;;-3.97;75.49;99404.48;2082150;83;21113;-76
2021/12/25 02:26:43;;;;;;;3.37;1.70;;;;;;;-4.05;74.99;99402.38;2092028;82;21381;-76
2021/12/25 02:29:44;;;;;;;3.00;1.40;;;;;;;-4.09;75.09;99410.77;2086163;83;21496;-75
2021/12/25 02:32:46;;;;;;;3.85;1.60;;;;;;;-4.15;73.91;99415.02;2089617;82;21071;-75
2021/12/25 02:35:48;;;;;;;7.60;1.82;;;;;;;-4.20;74.17;99429.17;2060077;83;21520;-75
2021/12/25 02:38:50;;;;;;;3.80;1.75;;;;;;;-4.22;75.34;99435.76;2086369;83;21106;-75
2021/12/25 02:41:52;;;;;;;2.98;1.80;;;;;;;-4.21;75.37;99440.47;2083624;83;21105;-74
2021/12/25 02:44:54;;;;;;;2.98;1.60;;;;;;;-4.20;75.27;99448.14;2077491;83;21086;-75
2021/12/25 02:47:57;;;;;;;6.33;2.10;;;;;;;-4.25;75.32;99448.89;2083886;83;21053;-75
2021/12/25 02:50:59;;;;;;;4.97;2.33;;;;;;;-4.27;75.82;99448.61;2073019;83;21075;-75
2021/12/25 02:54:01;;;;;;;5.10;2.00;;;;;;;-4.29;76.12;99449.98;2079188;82;21559;-75
2021/12/25 02:57:03;;;;;;;4.45;2.20;;;;;;;-4.28;76.29;99446.45;2078265;83;21357;-76
2021/12/25 03:00:08;;;;;;;5.78;1.82;;;;;;;-4.28;75.83;99454.22;2081702;83;21073;-75
2021/12/25 03:03:10;;;;;;;2.92;1.65;;;;;;;-4.32;75.79;99463.11;2076676;83;21059;-75
2021/12/25 03:06:12;;;;;;;4.55;1.98;;;;;;;-4.41;74.85;99459.77;2077477;83;21140;-75
2021/12/25 03:09:14;;;;;;;3.90;1.77;;;;;;;-4.48;75.33;99461.02;2077151;83;21082;-75
2021/12/25 03:12:24;;;;;;;2.30;2.00;;;;;;;-4.51;75.42;99468.50;2079831;83;21086;-75
2021/12/25 03:15:30;;;;;;;3.12;2.22;;;;;;;-4.59;75.55;99478.02;2083236;83;21064;-75
2021/12/25 03:18:37;;;;;;;5.80;2.62;;;;;;;-4.62;75.61;99489.81;2072547;83;21089;-75
2021/12/25 03:21:37;;;;;;;6.65;2.70;;;;;;;-4.62;76.12;99494.16;2081424;82;21069;-75
2021/12/25 03:24:38;;;;;;;3.45;1.98;;;;;;;-4.64;75.97;99483.91;2077916;83;21096;-75
2021/12/25 03:27:43;;;;;;;7.50;2.40;;;;;;;-4.67;76.06;99495.73;2080346;83;21076;-75
2021/12/25 03:30:44;;;;;;;4.60;2.10;;;;;;;-4.69;76.07;99483.33;2079238;83;21104;-75
2021/12/25 03:33:53;;;;;;;5.20;2.27;;;;;;;-4.68;76.42;99484.98;2070604;83;21032;-75
2021/12/25 03:36:54;;;;;;;5.92;2.20;;;;;;;-4.64;76.56;99489.55;2088665;83;21570;-75
2021/12/25 03:39:56;;;;;;;3.72;2.15;;;;;;;-4.67;75.99;99487.97;2083619;83;21123;-75
2021/12/25 03:42:58;;;;;;;8.25;2.33;;;;;;;-4.71;75.85;99503.28;2072271;82;21010;-75
2021/12/25 03:45:59;;;;;;;7.62;2.35;;;;;;;-4.77;75.91;99503.16;2075959;83;21882;-75
2021/12/25 03:49:08;;;;;;;8.25;2.08;;;;;;;-4.78;76.23;99500.67;2081352;82;21077;-75
2021/12/25 03:58:45;;;;;;;;;;;;;;;-4.80;75.79;99530.51;2079504;83;21172;-74
2021/12/25 04:01:53;;;;;;;;;;;;;;;-4.84;76.27;99532.91;2078221;83;20225;-76
2021/12/25 04:04:50;;;;;;;3.47;1.80;;;;;;;-4.77;76.46;99539.86;2061676;83;20199;-75
2021/12/25 04:08:10;;;;;;;7.45;2.83;;;;;;;-4.77;76.17;99548.45;2071088;83;21073;-75
2021/12/25 04:11:15;;;;;;;3.55;2.22;;;;;;;-4.74;76.48;99546.99;2075304;83;21093;-74
2021/12/25 04:14:15;;;;;;;6.92;2.58;;;;;;;-4.63;76.58;99549.47;2074288;83;21051;-75
2021/12/25 04:17:17;;;;;;;5.85;2.35;;;;;;;-4.54;76.74;99567.91;2078501;83;21332;-74
2021/12/25 04:20:18;;;;;;;5.15;2.35;;;;;;;-4.47;76.50;99571.48;2065864;83;21142;-74
2021/12/25 04:23:25;;;;;;;3.67;1.75;;;;;;;-4.40;76.66;99575.38;2086577;83;21567;-75
2021/12/25 04:26:25;;;;;;;6.25;2.02;;;;;;;-4.38;76.17;99570.95;2083464;82;21009;-76
2021/12/25 04:33:15;;;;;;;7.17;3.58;;;;;;;-4.44;76.15;99565.66;2078390;83;21126;-76
2021/12/25 05:03:23;;;;;;;5.45;2.15;;;;;;;-4.64;76.00;99625.02;2076417;83;21996;-75
2021/12/25 05:05:36;;;;;;;5.53;2.62;;;;;;;-4.65;75.75;99613.43;2063124;83;21134;-75
2021/12/25 05:08:39;;;;;;;8.70;2.65;;;;;;;-4.59;75.60;99615.69;2076410;83;21062;-74
2021/12/25 05:11:41;;;;;;;9.10;2.87;;;;;;;-4.68;75.54;99613.13;2080128;83;21930;-75
2021/12/25 05:14:43;;;;;;;4.42;2.47;;;;;;;-4.64;75.79;99611.23;2050728;83;21124;-74
2021/12/25 05:17:46;;;;;;;9.55;3.70;;;;;;;-4.65;75.72;99625.91;2070420;82;21090;-75
2021/12/25 05:20:49;;;;;;;12.37;3.77;;;;;;;-4.63;75.83;99631.84;2077594;83;21142;-75
2021/12/25 05:23:51;;;;;;;6.42;3.27;;;;;;;-4.61;76.01;99635.20;2085756;83;21130;-74
2021/12/25 05:26:57;;;;;;;9.70;3.15;;;;;;;-4.54;76.01;99634.41;2066064;83;21802;-75
2021/12/25 05:29:57;;;;;;;8.53;3.17;;;;;;;-4.53;75.86;99646.45;2069345;83;21585;-75
2021/12/25 05:33:01;;;;;;;5.28;2.80;;;;;;;-4.53;75.91;99644.69;2067534;83;21375;-74
2021/12/25 05:36:20;;;;;;;6.15;2.52;;;;;;;-4.53;75.73;99644.69;2074009;83;21104;-74
2021/12/25 05:39:23;;;;;;;4.80;2.33;;;;;;;-4.60;75.73;99654.98;2058703;83;21061;-75
2021/12/25 05:42:25;;;;;;;4.83;2.37;;;;;;;-4.59;75.73;99660.56;2070754;83;21093;-74
2021/12/25 05:45:27;;;;;;;4.67;2.47;;;;;;;-4.55;75.61;99664.64;2079580;82;21077;-75
2021/12/25 05:48:35;;;;;;;5.70;2.50;;;;;;;-4.59;75.55;99668.33;2087671;83;21147;-74
2021/12/25 05:51:36;;;;;;;6.97;2.95;;;;;;;-4.66;75.42;99680.38;2056576;82;21062;-74
2021/12/25 05:54:43;;;;;;;5.30;2.95;;;;;;;-4.75;75.35;99685.59;2067195;83;21616;-75
2021/12/25 05:57:46;;;;;;;6.47;2.83;;;;;;;-4.78;75.45;99692.22;2074439;83;21037;-74
2021/12/25 06:00:49;;;;;;;6.72;2.60;;;;;;;-4.79;75.42;99695.70;2073896;83;21105;-74
2021/12/25 06:03:51;;;;;;;5.42;3.12;;;;;;;-4.84;75.38;99695.10;2064665;83;21150;-75
2021/12/25 06:06:52;;;;;;;7.70;3.02;;;;;;;-4.86;75.37;99703.42;2084435;83;21673;-75
2021/12/25 06:09:55;;;;;;;6.78;3.92;;;;;;;-4.88;75.43;99701.37;2089963;83;21091;-75
2021/12/25 06:12:59;;;;;;;8.15;4.00;;;;;;;-4.93;75.39;99702.05;2073412;83;21934;-74
2021/12/25 06:16:00;;;;;;;9.28;3.47;;;;;;;-5.01;75.30;99702.01;2058033;83;21085;-74
2021/12/25 06:19:12;;;;;;;9.98;3.90;;;;;;;-5.06;75.32;99706.58;2050208;83;21144;-74
2021/12/25 06:22:21;;;;;;;9.45;3.17;;;;;;;-5.03;75.56;99709.00;2062281;83;21355;-75
2021/12/25 06:25:34;;;;;;;7.62;3.30;;;;;;;-5.10;75.42;99710.22;2074576;83;21064;-76
2021/12/25 06:28:37;;;;;;;9.18;3.50;;;;;;;-5.14;75.43;99703.53;2075789;83;21668;-74
2021/12/25 06:31:44;;;;;;;5.22;2.40;;;;;;;-5.23;75.40;99724.70;2078772;82;21119;-74
2021/12/25 06:34:56;;;;;;;6.53;2.92;;;;;;;-5.30;75.44;99718.14;2061883;82;21098;-75
2021/12/25 06:38:00;;;;;;;4.15;2.42;;;;;;;-5.34;75.59;99729.11;2004718;83;21076;-74
2021/12/25 06:41:15;;;;;;;7.40;2.50;;;;;;;-5.30;75.72;99732.38;2075195;82;21630;-75
2021/12/25 06:44:20;;;;;;;9.05;2.62;;;;;;;-5.32;75.59;99740.66;2066160;83;21048;-74
2021/12/25 06:47:23;;;;;;;6.80;2.12;;;;;;;-5.34;75.66;99739.91;2065751;83;21053;-74
2021/12/25 06:50:26;;;;;;;13.72;4.50;;;;;;;-5.32;75.66;99741.95;2067182;82;21100;-74
2021/12/25 06:53:42;;;;;;;13.25;5.12;;;;;;;-5.40;75.36;99744.93;2080230;83;22016;-75
2021/12/25 06:57:03;;;;;;;9.33;4.22;;;;;;;-5.48;75.62;99741.41;2076706;82;21082;-74
2021/12/25 07:00:06;;;;;;;7.37;3.27;;;;;;;-5.47;75.63;99743.54;2082292;83;21640;-75
2021/12/25 07:03:10;;;;;;;9.15;3.87;;;;;;;-5.44;75.75;99749.85;2074450;83;21107;-74
2021/12/25 07:06:28;;;;;;;7.90;3.83;;;;;;;-5.46;75.54;99747.36;2004598;86;21040;-75
2021/12/25 07:09:47;;;;;;;7.30;3.60;;;;;;;-5.50;75.61;99750.98;1946952;89;21123;-75
2021/12/25 07:13:00;;;;;;;7.20;3.30;;;;;;;-5.53;75.53;99764.53;2081024;83;21089;-75
2021/12/25 07:16:06;;;;;;;10.98;5.08;;;;;;;-5.63;75.51;99768.02;2056989;83;21073;-75
2021/12/25 07:19:18;;;;;;;11.22;4.62;;;;;;;-5.61;75.79;99763.59;2077193;83;21072;-77
2021/12/25 07:22:41;;;;;;;13.20;5.28;;;;;;;-5.55;75.56;99771.05;2070608;83;21555;-86
2021/12/25 07:25:50;;;;;;;11.83;4.40;;;;;;;-5.56;75.56;99770.68;2051371;83;21121;-83
2021/12/25 07:28:54;;;;;;;14.85;4.92;;;;;;;-5.60;75.77;99770.45;2086222;83;21102;-81
2021/12/25 07:31:55;;;;;;;111.08;23.77;;;;;;;-5.54;75.82;99772.75;2067457;83;21618;-80
2021/12/25 07:34:57;;;;;;;80.00;18.48;;;;;;;-5.53;75.73;99767.94;2088602;82;21125;-80
2021/12/25 07:37:59;;;;;;;106.52;49.03;;;;;;;-5.53;75.65;99779.58;2056484;83;21100;-79
2021/12/25 07:41:01;;;;;;;76.55;20.08;;;;;;;-5.48;75.82;99779.37;2086682;83;21953;-79
2021/12/25 07:44:03;;;;;;;38.30;11.48;;;;;;;-5.43;75.87;99779.99;2079676;83;21672;-80
2021/12/25 07:47:11;;;;;;;40.78;15.05;;;;;;;-5.36;76.00;99776.64;2068843;82;21041;-78
2021/12/25 07:50:13;;;;;;;42.48;13.50;;;;;;;-5.33;75.79;99784.25;2084091;83;21636;-78
2021/12/25 07:53:16;;;;;;;38.70;13.58;;;;;;;-5.37;75.86;99787.45;2056615;83;21106;-78
2021/12/25 07:56:18;;;;;;;33.63;11.50;;;;;;;-5.32;75.75;99791.95;2071069;83;21017;-78
2021/12/25 07:59:20;;;;;;;52.50;13.25;;;;;;;-5.28;75.81;99790.88;2057739;83;21046;-78
2021/12/25 08:02:21;;;;;;;38.67;11.75;;;;;;;-5.20;75.88;99791.80;2068246;83;21016;-78
2021/12/25 08:05:23;;;;;;;45.52;13.38;;;;;;;-5.03;75.85;99801.33;2068517;83;21653;-78
2021/12/25 08:08:26;;;;;;;39.23;13.08;;;;;;;-4.98;75.71;99803.23;2073491;83;21095;-78
2021/12/25 08:11:30;;;;;;;33.13;11.28;;;;;;;-4.99;75.61;99802.37;2062333;83;21195;-78
2021/12/25 08:14:33;;;;;;;27.67;11.57;;;;;;;-4.88;75.58;99813.48;2076502;83;21751;-78
2021/12/25 08:17:35;;;;;;;41.50;14.15;;;;;;;-4.60;75.79;99806.46;2075055;83;21068;-77
2021/12/25 08:20:38;;;;;;;159.95;39.83;;;;;;;-4.18;76.10;99811.63;2067061;83;21584;-78
2021/12/25 08:24:03;;;;;;;71.35;20.25;;;;;;;-3.80;76.02;99820.44;2082540;83;21122;-78
2021/12/25 08:27:21;;;;;;;37.45;14.70;;;;;;;-3.42;75.90;99816.19;2066296;82;21079;-78
2021/12/25 08:30:41;;;;;;;44.53;12.63;;;;;;;-3.10;75.75;99829.93;2079609;83;21209;-78
2021/12/25 08:34:01;;;;;;;43.20;15.23;;;;;;;-2.54;76.05;99824.52;2060386;84;21418;-78
2021/12/25 08:37:23;;;;;;;49.53;18.47;;;;;;;-1.91;75.74;99826.41;2085227;82;21412;-78
2021/12/25 08:40:25;;;;;;;42.85;17.10;;;;;;;-1.92;74.19;99822.95;2071884;83;21856;-78
2021/12/25 08:43:33;;;;;;;34.78;16.65;;;;;;;-1.91;74.28;99815.53;2081579;83;21063;-86
2021/12/25 08:46:54;;;;;;;39.53;16.55;;;;;;;-1.72;73.99;99810.47;2095701;82;21139;-81
2021/12/25 08:49:47;;;;;;;24.82;12.80;;;;;;;-1.44;73.87;99818.20;2069106;83;21103;-79
2021/12/25 08:52:50;;;;;;;23.32;11.30;;;;;;;-1.01;73.71;99814.16;2074276;83;21138;-78
2021/12/25 08:55:56;;;;;;;16.85;7.75;;;;;;;-0.57;73.61;99823.38;2086414;83;21078;-76
2021/12/25 08:59:00;;;;;;;15.10;7.33;;;;;;;-0.20;72.90;99829.18;2092626;82;21023;-73
2021/12/25 09:02:06;;;;;;;17.57;7.55;;;;;;;0.08;72.16;99828.11;2079041;83;21986;-75
2021/12/25 09:05:08;;;;;;;15.08;7.35;;;;;;;0.38;72.52;99825.95;2061817;84;21465;-72
2021/12/25 09:08:10;;;;;;;16.80;8.43;;;;;;;0.61;71.31;99827.39;2063698;83;21051;-74
2021/12/25 09:11:11;;;;;;;17.10;8.08;;;;;;;0.72;71.10;99824.02;2084814;83;21049;-73
2021/12/25 09:14:13;;;;;;;16.95;7.92;;;;;;;0.84;70.37;99819.20;2073978;82;21103;-71
2021/12/25 09:17:15;;;;;;;13.93;6.15;;;;;;;0.83;70.08;99822.28;2084610;83;21097;-73
2021/12/25 09:20:19;;;;;;;14.68;6.67;;;;;;;0.88;69.60;99824.09;2071504;83;21127;-72
2021/12/25 09:23:21;;;;;;;7.15;3.70;;;;;;;0.93;69.51;99825.08;2047026;84;21847;-73
2021/12/25 09:26:22;;;;;;;5.12;2.80;;;;;;;0.88;68.77;99833.23;2079606;83;21572;-73
2021/12/25 09:29:24;;;;;;;5.37;2.80;;;;;;;0.87;68.55;99826.36;2090709;82;21088;-73
2021/12/25 09:32:27;;;;;;;6.37;3.42;;;;;;;0.81;67.36;99828.09;2069821;82;21687;-73
2021/12/25 09:35:30;;;;;;;8.15;3.72;;;;;;;0.80;68.10;99825.60;2066997;83;21094;-74
2021/12/25 09:38:32;;;;;;;5.72;3.00;;;;;;;0.91;67.47;99828.27;2083504;82;21619;-73
2021/12/25 09:41:35;;;;;;;7.60;3.62;;;;;;;0.85;66.19;99825.63;2075735;83;21120;-72
2021/12/25 09:44:36;;;;;;;9.33;4.42;;;;;;;0.63;66.39;99820.30;2090392;83;21654;-73
2021/12/25 09:47:38;;;;;;;8.93;4.10;;;;;;;0.66;66.87;99823.98;2080330;83;21133;-72
2021/12/25 09:50:40;;;;;;;8.20;3.77;;;;;;;0.77;66.32;99827.13;2092721;83;20997;-73
2021/12/25 09:53:42;;;;;;;12.15;4.50;;;;;;;0.21;62.99;99824.53;2076613;82;21005;-73
2021/12/25 09:56:47;;;;;;;8.23;3.58;;;;;;;0.18;65.96;99821.31;2079467;83;21795;-72
2021/12/25 09:59:53;;;;;;;10.18;4.75;;;;;;;0.31;65.88;99819.52;2071083;83;21638;-72
2021/12/25 10:02:57;;;;;;;13.85;6.15;;;;;;;0.37;65.36;99830.00;2078079;82;21565;-73
2021/12/25 10:05:58;;;;;;;14.93;6.53;;;;;;;0.25;65.00;99832.97;2057656;82;21414;-74
2021/12/25 10:09:20;;;;;;;15.90;6.65;;;;;;;-0.08;63.87;99837.01;2070803;83;21152;-73
2021/12/25 10:12:40;;;;;;;16.23;6.00;;;;;;;-0.22;65.26;99841.52;2083189;83;21072;-74
2021/12/25 10:15:40;;;;;;;12.37;5.67;;;;;;;-0.29;64.48;99838.47;2074673;83;21104;-73
2021/12/25 10:18:44;;;;;;;17.05;6.70;;;;;;;-0.23;65.29;99838.04;2069022;82;21053;-73
2021/12/25 10:21:50;;;;;;;17.23;5.90;;;;;;;-0.09;64.69;99837.92;2090324;83;21085;-72
2021/12/25 10:25:10;;;;;;;12.18;5.67;;;;;;;-0.19;64.74;99830.87;2078072;83;21059;-74
2021/12/25 10:28:18;;;;;;;14.65;6.08;;;;;;;-0.17;64.91;99837.65;2074172;83;21013;-75
2021/12/25 10:31:34;;;;;;;13.98;6.58;;;;;;;-0.08;64.32;99838.79;2076844;83;21465;-74
2021/12/25 10:34:35;;;;;;;15.48;6.95;;;;;;;-0.34;63.96;99830.11;2094128;83;21164;-74
2021/12/25 10:37:41;;;;;;;21.77;9.33;;;;;;;-0.53;64.37;99833.98;2080828;82;21306;-72
2021/12/25 10:40:43;;;;;;;17.25;7.30;;;;;;;-0.87;63.65;99822.81;2084514;82;20986;-76
2021/12/25 10:43:44;;;;;;;17.62;7.90;;;;;;;-1.22;64.23;99820.74;2074946;83;21530;-74
2021/12/25 10:46:54;;;;;;;24.32;10.58;;;;;;;-1.34;64.47;99820.23;2093560;82;21893;-70
2021/12/25 10:50:02;;;;;;;95.75;39.75;;;;;;;-1.47;64.05;99826.20;2079616;83;21104;-71
2021/12/25 10:53:25;;;;;;;40.63;13.88;;;;;;;-1.49;63.90;99823.33;2073081;83;21100;-70
2021/12/25 10:56:37;;;;;;;16.02;7.28;;;;;;;-1.56;64.91;99826.80;2075024;83;21855;-71
2021/12/25 10:59:49;;;;;;;18.17;6.65;;;;;;;-1.50;65.07;99819.90;2071394;83;21138;-68
2021/12/25 11:03:09;;;;;;;11.78;6.05;;;;;;;-1.29;64.19;99821.61;2072889;83;21930;-69
2021/12/25 11:06:17;;;;;;;16.45;5.95;;;;;;;-1.29;64.61;99822.92;2071051;83;21533;-69
2021/12/25 11:09:21;;;;;;;27.85;9.65;;;;;;;-1.41;64.27;99820.64;2070556;83;21039;-71
2021/12/25 11:12:23;;;;;;;45.20;11.22;;;;;;;-1.43;64.85;99830.30;2083569;82;21300;-70
2021/12/25 11:15:34;;;;;;;19.75;7.60;;;;;;;-1.70;63.32;99830.73;2075929;83;21099;-68
2021/12/25 11:19:03;;;;;;;;;;;;;;;-1.84;63.84;99824.61;2078966;82;20983;-69
2021/12/25 11:21:59;;;;;;;;;;;;;;;-1.73;64.14;99828.33;2085494;83;20183;-68
2021/12/25 11:25:08;;;;;;;21.55;9.88;;;;;;;-1.43;64.64;99823.80;2082085;82;20173;-69
2021/12/25 11:28:12;;;;;;;40.05;11.48;;;;;;;-1.61;62.08;99830.98;2075733;83;21342;-68
2021/12/25 11:31:17;;;;;;;11.78;5.10;;;;;;;-1.86;63.69;99820.44;2071941;83;21093;-69
2021/12/25 11:34:20;;;;;;;16.42;6.97;;;;;;;-1.99;62.56;99833.37;2085757;83;20987;-69
2021/12/25 11:37:28;;;;;;;13.32;6.10;;;;;;;-2.09;63.66;99829.18;2086254;83;22030;-69
2021/12/25 11:40:37;;;;;;;27.05;8.68;;;;;;;-2.00;64.24;99829.08;2075547;83;21148;-69
2021/12/25 11:43:45;;;;;;;13.13;5.58;;;;;;;-1.99;62.50;99829.47;2070089;83;21101;-72
2021/12/25 11:46:47;;;;;;;14.15;6.05;;;;;;;-2.23;63.83;99815.36;2082715;82;21064;-74
2021/12/25 11:49:58;;;;;;;19.62;7.80;;;;;;;-2.13;64.28;99821.68;2075046;83;21128;-73
2021/12/25 11:53:27;;;;;;;16.95;5.90;;;;;;;-2.08;63.92;99830.04;2087695;83;21088;-73
2021/12/25 11:56:47;;;;;;;22.27;7.17;;;;;;;-2.32;63.23;99830.58;2060873;83;21034;-73
2021/12/25 11:59:53;;;;;;;15.83;5.28;;;;;;;-2.46;63.97;99835.76;2079471;82;21106;-73
2021/12/25 12:02:57;;;;;;;15.60;6.62;;;;;;;-2.47;63.71;99838.47;2085820;83;21092;-73
2021/12/25 12:06:01;;;;;;;12.88;5.75;;;;;;;-2.49;64.46;99828.15;2072169;83;21346;-73
2021/12/25 12:09:09;;;;;;;38.50;11.08;;;;;;;-2.38;64.56;99830.95;2083293;83;21065;-71
2021/12/25 12:12:30;;;;;;;33.42;16.45;;;;;;;-2.45;63.80;99833.52;2080882;83;21900;-72
2021/12/25 12:15:56;;;;;;;18.70;8.25;;;;;;;-2.52;64.77;99837.42;2079593;82;21087;-74
2021/12/25 12:19:05;;;;;;;18.40;7.40;;;;;;;-2.42;64.42;99846.36;2061799;83;21045;-74
2021/12/25 12:28:47;;;;;;;11.05;4.60;;;;;;;-2.92;64.40;99840.22;2088773;82;21050;-74
2021/12/25 12:31:51;;;;;;;29.18;8.18;;;;;;;-2.89;64.79;99844.77;2091453;82;21041;-75
2021/12/25 12:34:55;;;;;;;41.00;10.28;;;;;;;-3.12;64.18;99849.14;2090395;83;21635;-74
2021/12/25 12:38:44;;;;;;;10.82;4.55;;;;;;;-3.17;65.07;99857.17;2091764;82;21153;-74
2021/12/25 12:41:55;;;;;;;7.75;3.60;;;;;;;-3.11;65.24;99867.67;2090819;83;21052;-74
2021/12/25 12:45:21;;;;;;;11.03;3.73;;;;;;;-2.98;65.42;99857.81;2090564;83;21356;-73
2021/12/25 12:48:23;;;;;;;10.53;5.05;;;;;;;-2.99;65.26;99865.20;2074982;83;21924;-71
2021/12/25 12:51:25;;;;;;;10.88;4.85;;;;;;;-2.95;65.35;99865.42;2082198;83;21042;-72
2021/12/25 12:54:49;;;;;;;12.33;5.75;;;;;;;-2.93;65.57;99862.72;2077734;83;21134;-71
2021/12/25 12:58:09;;;;;;;7.42;3.83;;;;;;;-2.89;65.74;99849.95;2066623;83;21108;-70
2021/12/25 13:01:11;;;;;;;10.65;3.90;;;;;;;-2.90;65.40;99863.87;2085009;83;21716;-70
2021/12/25 13:04:13;;;;;;;8.85;4.22;;;;;;;-2.96;65.35;99857.70;2079770;83;21025;-73
2021/12/25 13:07:20;;;;;;;11.70;4.72;;;;;;;-3.06;65.19;99864.36;2089507;83;21096;-74
2021/12/25 13:10:31;;;;;;;10.45;4.40;;;;;;;-3.07;65.76;99860.07;2084127;82;21092;-73
2021/12/25 13:13:37;;;;;;;8.25;4.47;;;;;;;-3.02;65.72;99869.27;2062164;83;21128;-73
2021/12/25 13:16:44;;;;;;;9.43;4.12;;;;;;;-2.99;65.51;99874.29;2070388;83;21095;-73
2021/12/25 13:19:49;;;;;;;9.90;5.10;;;;;;;-2.99;65.64;99870.86;2063448;83;21104;-72
2021/12/25 13:22:59;;;;;;;9.33;4.85;;;;;;;-3.01;65.75;99881.35;2091710;82;21030;-72
2021/12/25 13:26:08;;;;;;;10.85;4.87;;;;;;;-2.99;65.91;99872.16;2078379;83;21081;-72
2021/12/25 13:29:17;;;;;;;10.72;5.28;;;;;;;-3.01;65.89;99878.75;2091854;83;21061;-73
2021/12/25 13:32:26;;;;;;;9.78;4.20;;;;;;;-3.02;65.82;99876.23;2070084;83;21026;-72
2021/12/25 13:35:27;;;;;;;8.43;4.53;;;;;;;-3.06;65.87;99883.36;2086531;82;21127;-72
2021/12/25 13:38:51;;;;;;;9.53;4.22;;;;;;;-3.07;65.89;99877.81;2080335;83;21129;-72
2021/12/25 13:42:01;;;;;;;9.58;4.28;;;;;;;-3.09;66.00;99878.34;2088154;83;22268;-72
2021/12/25 13:45:03;;;;;;;10.15;4.78;;;;;;;-3.01;66.20;99877.92;2061372;83;21096;-75
2021/12/25 13:48:06;;;;;;;7.85;4.03;;;;;;;-3.00;66.16;99879.59;2079494;83;21546;-74
2021/12/25 13:51:09;;;;;;;10.72;5.47;;;;;;;-2.98;66.10;99886.37;2087077;83;21032;-73
2021/12/25 13:54:23;;;;;;;9.20;5.37;;;;;;;-3.02;66.00;99891.80;2084212;83;21659;-73
2021/12/25 13:57:28;;;;;;;14.73;5.20;;;;;;;-3.04;66.15;99892.34;2076415;83;21058;-72
2021/12/25 14:00:37;;;;;;;10.80;4.75;;;;;;;-3.12;66.13;99894.56;2075211;83;21885;-73
2021/12/25 14:03:39;;;;;;;8.60;4.50;;;;;;;-3.23;66.37;99897.74;2087218;83;22602;-72
2021/12/25 14:06:40;;;;;;;15.15;6.42;;;;;;;-3.38;66.37;99908.48;2081009;83;21060;-73
2021/12/25 14:10:01;;;;;;;13.35;6.08;;;;;;;-3.52;66.67;99916.17;2065531;83;21639;-72
2021/12/25 14:13:09;;;;;;;;;;;;;;;-3.59;67.03;99917.44;2088818;83;21144;-73
2021/12/25 14:16:09;;;;;;;12.43;6.33;;;;;;;-3.64;67.12;99917.20;2091513;83;20663;-71
2021/12/25 14:19:13;;;;;;;18.07;7.20;;;;;;;-3.68;67.40;99920.06;2047193;83;21074;-72
2021/12/25 14:22:16;;;;;;;17.62;7.20;;;;;;;-3.64;67.64;99923.69;2073207;83;21087;-73
2021/12/25 14:25:24;;;;;;;14.83;6.72;;;;;;;-3.63;67.61;99927.14;2089974;82;21037;-71
2021/12/25 14:28:35;;;;;;;21.20;8.45;;;;;;;-3.66;67.68;99927.28;2088889;82;21404;-72
2021/12/25 14:31:41;;;;;;;26.97;10.08;;;;;;;-3.63;67.86;99916.77;2088907;83;21864;-72
2021/12/25 14:34:42;;;;;;;21.02;8.25;;;;;;;-3.63;67.82;99926.67;2082547;83;21072;-73
2021/12/25 14:37:45;;;;;;;97.25;26.48;;;;;;;-3.66;67.91;99928.14;2086982;83;21342;-72
2021/12/25 14:40:49;;;;;;;149.87;35.58;;;;;;;-3.69;67.80;99932.63;2088073;83;20993;-72
2021/12/25 14:43:51;;;;;;;50.10;14.87;;;;;;;-3.88;67.77;99933.61;2088315;82;21112;-72
2021/12/25 14:47:10;;;;;;;21.33;8.50;;;;;;;-4.01;68.00;99938.20;2096572;82;21081;-73
2021/12/25 14:50:25;;;;;;;49.35;16.95;;;;;;;-4.19;68.01;99938.23;1996968;86;21760;-72
2021/12/25 14:53:27;;;;;;;47.10;15.55;;;;;;;-4.45;68.18;99951.16;2024382;84;21042;-72
2021/12/25 14:56:36;;;;;;;59.10;22.90;;;;;;;-4.58;68.57;99949.66;2015731;85;21104;-72
2021/12/25 14:59:42;;;;;;;55.28;23.62;;;;;;;-4.55;68.77;99949.97;2054018;84;21115;-72
2021/12/25 15:02:43;;;;;;;134.07;39.40;;;;;;;-4.58;68.84;99951.41;2090157;82;21059;-72
2021/12/25 15:05:52;;;;;;;70.65;21.42;;;;;;;-4.53;68.99;99948.98;2077658;83;21626;-72
2021/12/25 15:09:16;;;;;;;58.28;19.20;;;;;;;-4.49;69.04;99948.83;2083685;83;21140;-73
2021/12/25 15:12:23;;;;;;;60.23;18.82;;;;;;;-4.47;69.02;99951.72;2090588;83;21085;-73
2021/12/25 15:15:25;;;;;;;47.45;16.15;;;;;;;-4.50;68.92;99951.88;2086296;83;21134;-75
2021/12/25 15:18:34;;;;;;;40.17;13.50;;;;;;;-4.57;68.96;99947.89;2084617;83;21307;-74
2021/12/25 15:21:45;;;;;;;38.75;15.68;;;;;;;-4.57;69.06;99952.61;2084797;83;21061;-73
2021/12/25 15:24:56;;;;;;;39.67;14.25;;;;;;;-4.60;69.75;99961.83;2090312;83;21034;-74
2021/12/25 15:27:58;;;;;;;39.58;14.90;;;;;;;-4.57;69.37;99959.09;2069596;83;22095;-74
2021/12/25 15:31:00;;;;;;;40.28;17.82;;;;;;;-4.54;69.36;99961.52;2075914;83;21077;-74
2021/12/25 15:34:09;;;;;;;81.63;33.55;;;;;;;-4.61;69.09;99959.33;2073935;83;21687;-74
2021/12/25 15:37:21;;;;;;;80.07;34.38;;;;;;;-4.80;68.98;99968.43;2088077;82;21113;-74
2021/12/25 15:40:30;;;;;;;72.40;32.03;;;;;;;-4.96;69.24;99962.67;2094188;82;21727;-73
2021/12/25 15:43:31;;;;;;;61.13;25.15;;;;;;;-4.94;69.42;99959.19;2072233;83;21661;-73
2021/12/25 15:46:33;;;;;;;52.40;23.73;;;;;;;-4.91;69.58;99957.75;2071820;83;21845;-74